Robeline, Louisiana
Current Conditions -  °F | °C
As of 12:15 PM on Wednesday 28 Jan 2015 (Local Time) from KIER Reporting Station
Clear Clear  
Wind Chill: 21°   Ceiling: Unl
Heat Index: 21°   Visibility: 10mi
Dew Point:   Wind: 7mph
Humidity: 39%   Direction: 130°SE
Pressure: 30.21"   Gusts: NA
Location:  31.69°N, 93.3°W
Report Text: KIER 281815Z AUTO 13006KT 10SM CLR 21/07 A3021 RMK AO2 T02120067
Loading
Personal Weather Stations






























Interactive Weather Map New forecast layout! Learn more

10-Day Weather Forecast

Advertisements
Track Severe Weather on mobile